Time;durP1;ratioP1;P1;durP2;ratioP2;P2;SDS_P1;SDS_P2;PMS_P1;PMS_P2;Temp;Humidity;BMP_temperature;BMP_pressure;BME280_temperature;BME280_humidity;BME280_pressure;Samples;Min_cycle;Max_cycle;Signal;HPM_P1;HPM_P2
2022/09/12 00:01:57;;;;;;;1.08;0.40;;;14.50;99.90;;;;;;5109338;28;20045;-82
2022/09/12 00:04:23;;;;;;;;;;;14.50;99.90;;;;;;5110841;28;20057;-83
2022/09/12 00:06:48;;;;;;;1.75;0.60;;;14.40;99.90;;;;;;5110035;28;20412;-83
2022/09/12 00:09:14;;;;;;;1.20;0.50;;;14.30;99.90;;;;;;5108976;28;20110;-83
2022/09/12 00:11:41;;;;;;;;;;;14.30;99.90;;;;;;5111398;28;20115;-83
2022/09/12 00:14:09;;;;;;;1.48;0.63;;;14.20;99.90;;;;;;5108188;28;19903;-83
2022/09/12 00:16:36;;;;;;;1.58;0.68;;;14.10;99.90;;;;;;5090761;28;20044;-83
2022/09/12 00:19:03;;;;;;;2.25;0.60;;;14.00;99.90;;;;;;5089347;28;20115;-83
2022/09/12 00:21:31;;;;;;;1.83;0.70;;;14.00;99.90;;;;;;5090128;28;20028;-81
2022/09/12 00:23:57;;;;;;;2.13;0.80;;;13.90;99.90;;;;;;5106579;28;20106;-83
2022/09/12 00:26:23;;;;;;;;;;;13.80;99.90;;;;;;5110852;28;20111;-82
2022/09/12 00:28:49;;;;;;;1.45;0.68;;;13.80;99.90;;;;;;5109319;28;20409;-83
2022/09/12 00:31:17;;;;;;;1.10;0.57;;;13.70;99.90;;;;;;5109142;28;20468;-82
2022/09/12 00:33:44;;;;;;;3.03;0.70;;;13.70;99.90;;;;;;5110922;28;20101;-83
2022/09/12 00:36:19;;;;;;;1.25;0.70;;;13.60;99.90;;;;;;5110376;28;20035;-83
2022/09/12 00:38:46;;;;;;;3.53;0.77;;;13.60;99.90;;;;;;5109131;28;20054;-83
2022/09/12 00:41:18;;;;;;;2.25;0.60;;;13.50;99.90;;;;;;5109176;28;20032;-83
2022/09/12 00:44:02;;;;;;;5.15;0.80;;;13.60;99.90;;;;;;5109233;28;20020;-83
2022/09/12 00:46:45;;;;;;;1.30;0.70;;;13.50;99.90;;;;;;5091216;28;20031;-82
2022/09/12 00:49:21;;;;;;;1.13;0.70;;;13.60;99.90;;;;;;5088688;28;20032;-83
2022/09/12 00:51:53;;;;;;;1.42;0.47;;;13.50;99.90;;;;;;5090302;28;20641;-81
2022/09/12 00:54:23;;;;;;;1.33;0.77;;;13.60;99.90;;;;;;5105873;28;20171;-81
2022/09/12 00:56:51;;;;;;;1.00;0.68;;;13.70;99.90;;;;;;5107991;28;20027;-81
2022/09/12 00:59:23;;;;;;;1.38;0.70;;;13.60;99.90;;;;;;5108308;28;20024;-84
2022/09/12 01:01:50;;;;;;;1.48;0.60;;;13.70;99.90;;;;;;5108426;28;20028;-84
2022/09/12 01:04:18;;;;;;;2.78;0.90;;;13.60;99.90;;;;;;5108156;28;20068;-83
2022/09/12 01:06:45;;;;;;;4.72;0.90;;;13.60;99.90;;;;;;5109829;28;20031;-82
2022/09/12 01:09:15;;;;;;;2.95;0.70;;;13.60;99.90;;;;;;5108545;28;20077;-83
2022/09/12 01:11:41;;;;;;;4.32;1.15;;;13.50;99.90;;;;;;5109032;28;20020;-83
2022/09/12 01:14:08;;;;;;;1.20;0.60;;;13.40;99.90;;;;;;5107864;28;20507;-84
2022/09/12 01:16:37;;;;;;;5.20;0.80;;;13.40;99.90;;;;;;5108726;28;20317;-83
2022/09/12 01:19:37;;;;;;;3.40;0.70;;;13.30;99.90;;;;;;5108521;28;20035;-84
2022/09/12 01:22:30;;;;;;;1.33;0.70;;;13.20;99.90;;;;;;5104924;28;20016;-83
2022/09/12 01:25:32;;;;;;;5.90;0.90;;;13.10;99.90;;;;;;5088156;28;20021;-83
2022/09/12 01:28:36;;;;;;;1.95;1.02;;;13.00;99.90;;;;;;5088232;28;20028;-83
2022/09/12 01:31:11;;;;;;;1.80;0.65;;;13.00;99.90;;;;;;5088339;28;20081;-84
2022/09/12 01:33:50;;;;;;;1.40;0.75;;;12.90;99.90;;;;;;5088411;28;20028;-82
2022/09/12 01:36:37;;;;;;;2.90;0.80;;;12.90;99.90;;;;;;5088676;28;20143;-84
2022/09/12 01:39:13;;;;;;;3.40;1.10;;;12.80;99.90;;;;;;5089626;28;20467;-83
2022/09/12 01:41:54;;;;;;;6.95;0.90;;;12.80;99.90;;;;;;5088295;28;20028;-81
2022/09/12 01:44:38;;;;;;;1.10;0.73;;;12.70;99.90;;;;;;5087959;28;20531;-83
2022/09/12 01:47:07;;;;;;;3.92;0.90;;;12.70;99.90;;;;;;5088082;28;20036;-84
2022/09/12 01:49:45;;;;;;;2.70;0.80;;;12.70;99.90;;;;;;5087486;28;20060;-83
2022/09/12 01:52:27;;;;;;;1.98;0.70;;;12.70;99.90;;;;;;5089488;28;20024;-84
2022/09/12 01:55:07;;;;;;;1.45;0.80;;;12.70;99.90;;;;;;5087625;28;20131;-83
2022/09/12 01:57:53;;;;;;;1.70;1.05;;;12.60;99.90;;;;;;5089005;28;20786;-83
2022/09/12 02:00:19;;;;;;;1.55;0.80;;;12.70;99.90;;;;;;5088195;28;20024;-83
2022/09/12 02:02:46;;;;;;;;;;;12.80;99.90;;;;;;5088309;28;20039;-83
2022/09/12 02:05:45;;;;;;;1.00;0.65;;;13.00;99.90;;;;;;5095900;28;19907;-83
2022/09/12 02:08:16;;;;;;;4.45;0.60;;;13.20;99.90;;;;;;5098078;28;20042;-83
2022/09/12 02:11:05;;;;;;;1.73;0.85;;;13.40;99.90;;;;;;5109285;28;20027;-83
2022/09/12 02:13:42;;;;;;;1.23;0.80;;;13.40;99.90;;;;;;5107095;28;20101;-81
2022/09/12 02:16:12;;;;;;;6.07;0.80;;;13.40;99.90;;;;;;5107553;28;20031;-81
2022/09/12 02:18:44;;;;;;;2.97;0.68;;;13.30;99.90;;;;;;5107430;28;20035;-83
2022/09/12 02:21:10;;;;;;;1.10;0.60;;;13.30;99.90;;;;;;5107589;28;20047;-83
2022/09/12 02:23:38;;;;;;;;;;;13.20;99.90;;;;;;5108853;28;20102;-83
2022/09/12 02:26:09;;;;;;;1.15;0.85;;;13.10;99.90;;;;;;5110158;28;19931;-82
2022/09/12 02:28:40;;;;;;;2.75;0.80;;;13.00;99.90;;;;;;5111432;28;20028;-83
2022/09/12 02:31:32;;;;;;;1.92;0.73;;;12.90;99.90;;;;;;5110384;28;20118;-83
2022/09/12 02:34:08;;;;;;;4.07;0.80;;;12.90;99.90;;;;;;5109251;28;20073;-83
2022/09/12 02:36:51;;;;;;;2.10;1.00;;;12.90;99.90;;;;;;5112078;28;20376;-82
2022/09/12 02:39:19;;;;;;;3.38;1.00;;;12.80;99.90;;;;;;5113077;28;20027;-82
2022/09/12 02:41:49;;;;;;;1.50;1.00;;;12.70;99.90;;;;;;5109856;28;20024;-83
2022/09/12 02:44:15;;;;;;;3.15;1.00;;;12.70;99.90;;;;;;5110234;28;20030;-83
2022/09/12 02:46:42;;;;;;;;;;;12.60;99.90;;;;;;5090981;28;20036;-83
2022/09/12 02:49:08;;;;;;;1.40;0.90;;;12.50;99.90;;;;;;5090480;28;19962;-84
2022/09/12 02:51:36;;;;;;;;;;;12.50;99.90;;;;;;5091176;28;20125;-82
2022/09/12 02:54:02;;;;;;;3.13;1.02;;;12.40;99.90;;;;;;5089454;28;19916;-84
2022/09/12 02:56:29;;;;;;;4.85;1.20;;;12.40;99.90;;;;;;5090581;28;20036;-83
2022/09/12 02:59:01;;;;;;;1.65;1.10;;;12.40;99.90;;;;;;5090605;28;20098;-83
2022/09/12 03:01:48;;;;;;;2.83;1.20;;;12.30;99.90;;;;;;5090203;28;20077;-83
2022/09/12 03:04:19;;;;;;;;;;;12.40;99.90;;;;;;5091195;28;20028;-82
2022/09/12 03:07:05;;;;;;;3.95;1.23;;;12.40;99.90;;;;;;5091444;28;19912;-83
2022/09/12 03:09:38;;;;;;;5.70;1.52;;;12.50;99.90;;;;;;5100494;28;20122;-84
2022/09/12 03:12:20;;;;;;;2.10;1.38;;;12.60;99.90;;;;;;5110445;28;20066;-82
2022/09/12 03:15:00;;;;;;;2.72;1.42;;;12.70;99.90;;;;;;5110296;28;20023;-83
2022/09/12 03:17:29;;;;;;;5.15;1.65;;;12.80;99.90;;;;;;5111316;27;20019;-83
2022/09/12 03:20:20;;;;;;;3.05;1.58;;;12.90;99.90;;;;;;5110030;28;20114;-84
2022/09/12 03:22:55;;;;;;;2.08;1.23;;;12.90;99.90;;;;;;5096782;28;20296;-84
2022/09/12 03:25:33;;;;;;;2.20;1.42;;;12.90;99.90;;;;;;5089318;28;20059;-84
2022/09/12 03:28:08;;;;;;;4.50;1.73;;;12.80;99.90;;;;;;5089895;28;20020;-84
2022/09/12 03:30:42;;;;;;;4.68;1.40;;;12.80;99.90;;;;;;5089281;28;20028;-81
2022/09/12 03:33:19;;;;;;;2.15;1.25;;;12.70;99.90;;;;;;5089725;28;20035;-84
2022/09/12 03:35:45;;;;;;;2.20;1.42;;;12.60;99.90;;;;;;5089476;28;20526;-83
2022/09/12 03:38:11;;;;;;;2.13;1.45;;;12.50;99.90;;;;;;5088024;28;20565;-84
2022/09/12 03:40:37;;;;;;;;;;;12.50;99.90;;;;;;5090679;28;20020;-84
2022/09/12 03:43:05;;;;;;;3.15;1.48;;;12.40;99.90;;;;;;5089188;28;20394;-83
2022/09/12 03:45:31;;;;;;;6.32;1.45;;;12.30;99.90;;;;;;5089110;28;20060;-83
2022/09/12 03:47:57;;;;;;;;;;;12.30;99.90;;;;;;5090037;28;20082;-84
2022/09/12 03:50:23;;;;;;;3.72;2.50;;;12.30;99.90;;;;;;5090614;28;19946;-84
2022/09/12 03:52:48;;;;;;;;;;;12.20;99.90;;;;;;5089587;28;20035;-82
2022/09/12 03:55:14;;;;;;;6.03;1.75;;;12.20;99.90;;;;;;5105407;28;20396;-83
2022/09/12 03:57:40;;;;;;;;;;;12.20;99.90;;;;;;5089504;28;20028;-84
2022/09/12 04:00:07;;;;;;;2.85;1.50;;;12.20;99.90;;;;;;5089312;28;19957;-83
2022/09/12 04:02:34;;;;;;;5.68;1.65;;;12.20;99.90;;;;;;5109852;28;20076;-83
2022/09/12 04:04:59;;;;;;;3.28;1.50;;;12.30;99.90;;;;;;5108648;28;20793;-84
2022/09/12 04:07:25;;;;;;;;;;;12.20;99.90;;;;;;5109244;28;20027;-84
2022/09/12 04:09:52;;;;;;;4.57;1.85;;;12.20;99.90;;;;;;5108343;28;19936;-83
2022/09/12 04:12:18;;;;;;;7.55;1.80;;;12.20;99.90;;;;;;5107621;28;20051;-81
2022/09/12 04:14:43;;;;;;;3.67;2.10;;;12.10;99.90;;;;;;5107951;28;20034;-83
2022/09/12 04:17:09;;;;;;;;;;;12.10;99.90;;;;;;5109838;28;20024;-84
2022/09/12 04:19:35;;;;;;;5.65;1.58;;;12.00;99.90;;;;;;5109078;28;19926;-84
2022/09/12 04:22:00;;;;;;;;;;;12.00;99.90;;;;;;5109146;28;20501;-83
2022/09/12 04:24:26;;;;;;;3.00;1.60;;;12.10;99.90;;;;;;5108974;28;20393;-83
2022/09/12 04:26:52;;;;;;;;;;;12.30;99.90;;;;;;5109229;28;20067;-84
2022/09/12 04:29:18;;;;;;;2.42;1.40;;;12.30;99.90;;;;;;5108172;28;20368;-83
2022/09/12 04:31:43;;;;;;;;;;;12.30;99.90;;;;;;5108993;28;20038;-83
2022/09/12 04:34:09;;;;;;;2.10;1.35;;;12.30;99.90;;;;;;5125865;27;19908;-83
2022/09/12 04:36:35;;;;;;;;;;;12.40;99.90;;;;;;5104238;28;20024;-82
2022/09/12 04:39:02;;;;;;;6.07;1.90;;;12.50;99.90;;;;;;5089070;28;20001;-83
2022/09/12 04:41:36;;;;;;;6.43;1.80;;;12.60;99.90;;;;;;5088337;28;20720;-84
2022/09/12 04:44:07;;;;;;;2.05;1.27;;;12.80;99.90;;;;;;5090799;28;20063;-85
2022/09/12 04:46:38;;;;;;;3.42;1.55;;;12.80;99.90;;;;;;5108252;28;20128;-84
2022/09/12 04:49:04;;;;;;;4.57;1.90;;;12.90;99.90;;;;;;5108488;28;20024;-83
2022/09/12 04:51:34;;;;;;;4.20;1.55;;;12.90;99.90;;;;;;5108427;28;20499;-85
2022/09/12 04:54:10;;;;;;;8.60;2.45;;;13.10;99.90;;;;;;5108471;28;20043;-84
2022/09/12 04:56:40;;;;;;;4.10;1.50;;;13.50;99.90;;;;;;5106853;28;20024;-83
2022/09/12 04:59:07;;;;;;;2.92;1.38;;;13.80;99.90;;;;;;5107420;28;20035;-83
2022/09/12 05:01:33;;;;;;;3.92;1.25;;;13.80;99.90;;;;;;5105756;28;20024;-81
2022/09/12 05:04:00;;;;;;;4.88;1.30;;;13.80;99.90;;;;;;5087007;28;20508;-79
2022/09/12 05:06:31;;;;;;;2.47;1.50;;;13.70;99.90;;;;;;5087322;28;20093;-81
2022/09/12 05:08:58;;;;;;;2.70;1.50;;;13.60;99.90;;;;;;5092689;28;20028;-82
2022/09/12 05:11:30;;;;;;;3.17;1.52;;;13.60;99.90;;;;;;5100583;28;20027;-80
2022/09/12 05:13:56;;;;;;;2.05;1.05;;;13.60;99.90;;;;;;5118259;28;20122;-82
2022/09/12 05:16:25;;;;;;;2.05;0.98;;;13.60;99.90;;;;;;5108250;28;20031;-81
2022/09/12 05:18:51;;;;;;;3.28;0.98;;;13.70;99.90;;;;;;5106527;28;20122;-82
2022/09/12 05:21:21;;;;;;;;;;;14.00;99.90;;;;;;5107586;28;20087;-81
2022/09/12 05:23:53;;;;;;;1.95;1.08;;;14.60;99.90;;;;;;5088053;28;19908;-82
2022/09/12 05:26:20;;;;;;;3.60;1.15;;;15.40;99.90;;;;;;5086051;28;20558;-82
2022/09/12 05:28:47;;;;;;;1.52;0.90;;;16.20;99.90;;;;;;5086497;28;20054;-82
2022/09/12 05:31:22;;;;;;;2.80;1.00;;;16.90;99.90;;;;;;5088491;28;20032;-84
2022/09/12 05:33:49;;;;;;;2.30;1.00;;;17.50;99.90;;;;;;5106492;28;20027;-85
2022/09/12 05:36:29;;;;;;;4.18;0.85;;;18.00;99.90;;;;;;5107911;28;20027;-84
2022/09/12 05:38:55;;;;;;;2.35;1.35;;;18.50;99.90;;;;;;5109409;28;20016;-84
2022/09/12 05:41:24;;;;;;;2.53;0.70;;;18.80;99.90;;;;;;5108076;28;20031;-85
2022/09/12 05:43:56;;;;;;;3.45;1.00;;;19.10;99.90;;;;;;5090084;28;20024;-85
2022/09/12 05:46:24;;;;;;;3.63;0.80;;;19.30;99.90;;;;;;5115783;28;20028;-86
2022/09/12 05:48:51;;;;;;;2.13;0.75;;;19.40;99.90;;;;;;5109276;28;20182;-85
2022/09/12 05:51:19;;;;;;;3.53;0.77;;;19.40;99.90;;;;;;5109242;28;20035;-86
2022/09/12 05:53:54;;;;;;;2.70;0.77;;;19.40;99.90;;;;;;5110719;28;20404;-86
2022/09/12 05:56:26;;;;;;;2.25;0.75;;;19.40;99.90;;;;;;5106710;28;20020;-86
2022/09/12 05:58:53;;;;;;;3.50;0.80;;;19.40;99.90;;;;;;5108283;28;20028;-86
2022/09/12 06:01:19;;;;;;;1.55;0.80;;;19.30;99.90;;;;;;5109658;28;20217;-86
2022/09/12 06:03:48;;;;;;;2.08;0.88;;;19.20;99.90;;;;;;5113988;28;20087;-86
2022/09/12 06:06:15;;;;;;;3.45;0.73;;;19.10;99.90;;;;;;5112978;28;20053;-86
2022/09/12 06:08:42;;;;;;;1.65;0.80;;;19.20;99.90;;;;;;5107838;28;20016;-85
2022/09/12 06:11:12;;;;;;;2.72;0.77;;;19.40;99.90;;;;;;5091732;28;20043;-86
2022/09/12 06:13:39;;;;;;;3.85;1.00;;;19.60;99.90;;;;;;5093492;28;20024;-86
2022/09/12 06:16:10;;;;;;;2.85;1.00;;;20.00;99.90;;;;;;5108831;28;20379;-85
2022/09/12 06:18:37;;;;;;;2.13;1.00;;;20.60;99.90;;;;;;5113572;28;20201;-86
2022/09/12 06:21:05;;;;;;;3.15;0.95;;;21.20;99.70;;;;;;5110808;28;20027;-87
2022/09/12 06:23:31;;;;;;;1.83;0.98;;;21.90;98.10;;;;;;5092634;28;20031;-86
2022/09/12 06:25:57;;;;;;;2.17;0.90;;;22.50;96.60;;;;;;5091228;28;20134;-84
2022/09/12 06:28:23;;;;;;;3.63;1.17;;;23.00;95.70;;;;;;5090206;28;20279;-84
2022/09/12 06:30:49;;;;;;;2.67;0.90;;;23.40;94.00;;;;;;5091721;28;20039;-82
2022/09/12 06:33:15;;;;;;;9.15;1.10;;;23.60;92.90;;;;;;5110908;28;20019;-86
2022/09/12 06:35:41;;;;;;;1.50;0.90;;;24.00;91.50;;;;;;5112654;28;20080;-87
2022/09/12 06:38:06;;;;;;;1.42;0.80;;;24.30;90.60;;;;;;5095742;28;20016;-88
2022/09/12 06:40:32;;;;;;;2.67;0.95;;;24.70;87.00;;;;;;5091050;28;20059;-85
2022/09/12 06:42:58;;;;;;;5.25;0.88;;;24.90;84.10;;;;;;5098466;28;20555;-85
2022/09/12 06:45:24;;;;;;;2.35;0.70;;;25.10;81.20;;;;;;5113193;28;20039;-85
2022/09/12 06:47:50;;;;;;;6.38;1.08;;;25.50;80.60;;;;;;5112978;28;20106;-85
2022/09/12 06:50:16;;;;;;;4.10;0.80;;;25.70;77.70;;;;;;5111304;28;20119;-85
2022/09/12 06:52:43;;;;;;;4.43;1.20;;;26.30;75.00;;;;;;5111430;28;20117;-85
2022/09/12 06:55:09;;;;;;;1.00;0.60;;;26.60;72.80;;;;;;5111426;28;20078;-86
2022/09/12 06:57:37;;;;;;;2.85;0.73;;;26.70;70.10;;;;;;5110851;28;20026;-84
2022/09/12 07:00:07;;;;;;;2.45;0.85;;;26.90;68.60;;;;;;5111887;28;20114;-84
2022/09/12 07:02:32;;;;;;;1.13;0.60;;;27.00;64.10;;;;;;5112105;28;20111;-83
2022/09/12 07:04:58;;;;;;;1.38;0.73;;;26.80;60.40;;;;;;5111116;28;20119;-83
2022/09/12 07:07:23;;;;;;;1.52;0.75;;;27.00;59.10;;;;;;5111218;28;20031;-83
2022/09/12 07:09:49;;;;;;;2.10;0.60;;;26.80;60.70;;;;;;5111804;28;20028;-83
2022/09/12 07:12:15;;;;;;;6.05;0.80;;;27.30;61.10;;;;;;5108556;28;20263;-84
2022/09/12 07:14:41;;;;;;;3.85;0.88;;;27.20;58.50;;;;;;5093042;28;20528;-82
2022/09/12 07:17:07;;;;;;;3.58;0.70;;;27.50;59.30;;;;;;5091239;28;20031;-85
2022/09/12 07:19:33;;;;;;;1.55;0.80;;;28.10;57.00;;;;;;5092466;28;20024;-84
2022/09/12 07:21:59;;;;;;;1.23;0.65;;;28.20;55.30;;;;;;5107084;28;20024;-83
2022/09/12 07:24:25;;;;;;;3.22;0.70;;;28.30;55.70;;;;;;5111730;28;20438;-84
2022/09/12 07:26:51;;;;;;;2.55;0.70;;;28.60;56.30;;;;;;5110244;28;20039;-83
2022/09/12 07:29:17;;;;;;;5.82;0.73;;;29.20;54.40;;;;;;5109697;28;20031;-83
2022/09/12 07:31:43;;;;;;;3.97;0.80;;;29.30;53.30;;;;;;5109008;28;20465;-83
2022/09/12 07:34:09;;;;;;;2.78;0.60;;;29.40;51.60;;;;;;5110679;28;20035;-81
2022/09/12 07:36:34;;;;;;;1.95;0.82;;;29.80;51.20;;;;;;5097237;28;20016;-82
2022/09/12 07:39:00;;;;;;;1.98;0.88;;;30.10;49.70;;;;;;5089254;28;20118;-84
2022/09/12 07:41:28;;;;;;;2.17;0.60;;;30.00;48.20;;;;;;5089641;28;20024;-84
2022/09/12 07:43:58;;;;;;;7.13;0.80;;;30.00;48.20;;;;;;5090587;28;20114;-82
2022/09/12 07:46:25;;;;;;;2.05;0.80;;;30.50;47.20;;;;;;5109911;28;20035;-84
2022/09/12 07:48:52;;;;;;;2.05;0.65;;;30.70;47.30;;;;;;5111598;28;20043;-85
2022/09/12 07:51:19;;;;;;;1.90;0.60;;;30.70;44.80;;;;;;5111429;28;20027;-85
2022/09/12 07:53:46;;;;;;;4.13;0.60;;;30.60;43.90;;;;;;5096934;28;20052;-85
2022/09/12 07:56:12;;;;;;;3.85;0.50;;;30.40;45.30;;;;;;5096238;28;20116;-85
2022/09/12 07:58:40;;;;;;;2.50;1.02;;;30.40;45.30;;;;;;5111715;28;20240;-85
2022/09/12 08:01:16;;;;;;;0.70;0.60;;;30.80;45.50;;;;;;5111228;28;20042;-85
2022/09/12 08:03:44;;;;;;;3.70;0.70;;;31.20;43.80;;;;;;5111165;28;20020;-84
2022/09/12 08:06:15;;;;;;;4.88;0.77;;;31.20;44.20;;;;;;5104719;28;20040;-83
2022/09/12 08:08:42;;;;;;;4.95;0.80;;;31.20;45.50;;;;;;5100450;28;20110;-86
2022/09/12 08:11:11;;;;;;;1.33;0.60;;;31.10;45.80;;;;;;5110223;28;20024;-83
2022/09/12 08:13:38;;;;;;;5.55;0.77;;;31.40;47.30;;;;;;5096705;28;20035;-84
2022/09/12 08:16:15;;;;;;;1.13;0.77;;;31.50;46.20;;;;;;5097431;28;20507;-84
2022/09/12 08:18:41;;;;;;;1.75;0.80;;;31.40;47.10;;;;;;5100203;28;20247;-85
2022/09/12 08:21:13;;;;;;;1.60;0.80;;;31.10;46.90;;;;;;5104323;28;20116;-85
2022/09/12 08:23:39;;;;;;;1.25;0.63;;;30.80;48.30;;;;;;5099695;28;20039;-82
2022/09/12 08:26:05;;;;;;;1.58;0.77;;;30.90;47.70;;;;;;5100122;28;20024;-85
2022/09/12 08:28:33;;;;;;;3.42;0.73;;;30.60;47.90;;;;;;5106485;28;20024;-85
2022/09/12 08:31:12;;;;;;;1.80;0.82;;;30.60;47.40;;;;;;5108054;28;20795;-84
2022/09/12 08:33:38;;;;;;;2.28;0.75;;;30.50;47.80;;;;;;5109741;28;20108;-84
2022/09/12 08:36:05;;;;;;;1.17;0.63;;;30.30;49.10;;;;;;5112226;28;20039;-83
2022/09/12 08:38:32;;;;;;;2.08;0.70;;;30.20;48.50;;;;;;5090804;28;20032;-84
2022/09/12 08:41:27;;;;;;;2.65;1.00;;;29.90;49.00;;;;;;5089407;28;20069;-83
2022/09/12 08:44:24;;;;;;;1.02;0.60;;;29.90;50.00;;;;;;5080032;28;20028;-83
2022/09/12 08:47:28;;;;;;;3.45;1.02;;;30.10;49.10;;;;;;5087883;28;20028;-84
2022/09/12 08:50:04;;;;;;;2.50;0.93;;;30.30;49.90;;;;;;5027382;28;20087;-84
2022/09/12 08:52:42;;;;;;;1.30;0.70;;;30.40;49.40;;;;;;5027848;28;20033;-84
2022/09/12 08:55:50;;;;;;;1.52;0.70;;;30.70;49.00;;;;;;5074779;28;20040;-85
2022/09/12 08:58:21;;;;;;;2.00;0.70;;;30.80;47.70;;;;;;5081131;28;20185;-84
2022/09/12 09:01:08;;;;;;;1.33;0.55;;;30.70;48.00;;;;;;5087967;28;20073;-85
2022/09/12 09:04:11;;;;;;;2.72;0.68;;;30.10;47.90;;;;;;5087379;28;20471;-85
2022/09/12 09:06:55;;;;;;;2.13;0.70;;;30.60;46.70;;;;;;5089095;28;20111;-83
2022/09/12 09:10:06;;;;;;;0.90;0.60;;;30.80;46.40;;;;;;5087721;28;20120;-85
2022/09/12 09:12:57;;;;;;;2.42;0.70;;;31.20;46.40;;;;;;5026466;28;20401;-85
2022/09/12 09:15:36;;;;;;;8.15;0.75;;;31.40;44.70;;;;;;5026322;28;20495;-83
2022/09/12 09:18:10;;;;;;;1.98;0.90;;;31.40;44.40;;;;;;5082267;28;20567;-85
2022/09/12 09:20:41;;;;;;;1.08;0.50;;;31.40;45.30;;;;;;5087431;28;20614;-84
2022/09/12 09:23:07;;;;;;;4.13;0.50;;;31.60;44.60;;;;;;5090191;28;20065;-84
2022/09/12 09:25:55;;;;;;;0.90;0.50;;;31.00;41.50;;;;;;5089849;28;20103;-85
2022/09/12 09:28:45;;;;;;;2.10;0.77;;;30.80;42.70;;;;;;5090155;28;20024;-85
2022/09/12 09:31:16;;;;;;;1.27;0.63;;;30.20;44.20;;;;;;5089040;28;20024;-84
2022/09/12 09:33:43;;;;;;;1.00;0.50;;;29.20;45.00;;;;;;5088413;28;20032;-84
2022/09/12 09:36:17;;;;;;;1.58;0.45;;;28.30;45.10;;;;;;5091370;28;20385;-84
2022/09/12 09:39:03;;;;;;;1.33;0.60;;;27.60;47.40;;;;;;5094574;28;20028;-83
2022/09/12 09:41:36;;;;;;;1.23;0.65;;;27.10;48.30;;;;;;5092222;28;20028;-84
2022/09/12 09:44:02;;;;;;;2.03;0.57;;;26.80;49.00;;;;;;5092980;28;20496;-84
2022/09/12 09:46:28;;;;;;;1.75;0.50;;;26.80;50.00;;;;;;5092077;28;20115;-83
2022/09/12 09:48:57;;;;;;;3.05;0.47;;;26.50;48.80;;;;;;5093634;28;20107;-84
2022/09/12 09:51:32;;;;;;;1.45;0.60;;;26.20;49.80;;;;;;5092282;28;20030;-84
2022/09/12 09:54:10;;;;;;;1.15;0.60;;;25.80;51.10;;;;;;5107881;28;20036;-85
2022/09/12 09:56:41;;;;;;;1.10;0.40;;;25.80;52.00;;;;;;5112811;28;20036;-85
2022/09/12 09:59:24;;;;;;;0.70;0.40;;;25.90;51.90;;;;;;5116275;28;20110;-84
2022/09/12 10:01:56;;;;;;;1.45;0.60;;;26.20;50.20;;;;;;5098524;28;20021;-85
2022/09/12 10:04:35;;;;;;;4.20;0.68;;;25.90;51.40;;;;;;5092289;28;20028;-85
2022/09/12 10:07:03;;;;;;;2.38;1.05;;;25.40;54.00;;;;;;5091693;28;20105;-85
2022/09/12 10:09:31;;;;;;;1.38;0.70;;;24.90;55.20;;;;;;5103495;28;20027;-84
2022/09/12 10:11:58;;;;;;;5.32;0.88;;;24.30;56.80;;;;;;5112775;28;20024;-85
2022/09/12 10:14:39;;;;;;;1.40;0.80;;;23.80;58.00;;;;;;5112309;28;20054;-84
2022/09/12 10:17:27;;;;;;;1.23;0.50;;;23.40;60.00;;;;;;5112195;28;20099;-84
2022/09/12 10:19:53;;;;;;;1.45;0.85;;;23.50;60.00;;;;;;5112381;28;20020;-84
2022/09/12 10:22:22;;;;;;;1.42;0.70;;;24.20;60.70;;;;;;5112452;28;20023;-84
2022/09/12 10:24:56;;;;;;;2.08;0.80;;;24.60;58.30;;;;;;5112433;28;20020;-85
2022/09/12 10:27:29;;;;;;;1.15;0.60;;;25.00;58.10;;;;;;5112542;28;20055;-84
2022/09/12 10:30:03;;;;;;;2.85;0.60;;;25.00;55.70;;;;;;5112402;28;20034;-83
2022/09/12 10:32:36;;;;;;;0.90;0.60;;;24.90;56.80;;;;;;5113607;28;20468;-83
2022/09/12 10:35:16;;;;;;;3.17;0.50;;;24.80;56.80;;;;;;5114110;28;20054;-85
2022/09/12 10:38:03;;;;;;;1.77;0.57;;;24.70;56.10;;;;;;5097646;28;20127;-84
2022/09/12 10:40:35;;;;;;;1.63;0.80;;;24.30;56.10;;;;;;5093043;28;20035;-85
2022/09/12 10:43:14;;;;;;;0.82;0.52;;;23.90;57.70;;;;;;5097171;28;20035;-82
2022/09/12 10:45:40;;;;;;;1.45;0.60;;;23.50;59.10;;;;;;5111292;28;20031;-84
2022/09/12 10:48:30;;;;;;;2.47;0.63;;;23.20;60.50;;;;;;5111351;28;20098;-84
2022/09/12 10:51:00;;;;;;;3.13;0.75;;;23.10;61.00;;;;;;5091687;28;20500;-84
2022/09/12 10:53:30;;;;;;;1.55;0.80;;;23.10;62.40;;;;;;5091459;28;20488;-84
2022/09/12 10:56:04;;;;;;;1.55;0.80;;;23.30;63.90;;;;;;5092417;28;20036;-84
2022/09/12 10:58:55;;;;;;;1.20;0.60;;;23.60;63.30;;;;;;5090884;28;20032;-85
2022/09/12 11:01:48;;;;;;;1.30;0.70;;;24.00;60.50;;;;;;5091631;28;20380;-84
2022/09/12 11:04:23;;;;;;;2.70;0.65;;;24.00;58.50;;;;;;5088021;28;20131;-85
2022/09/12 11:07:12;;;;;;;2.25;0.75;;;23.90;58.30;;;;;;5110413;28;20027;-84
2022/09/12 11:09:56;;;;;;;2.75;0.50;;;23.50;58.90;;;;;;5081091;28;20036;-84
2022/09/12 11:12:41;;;;;;;2.08;0.55;;;23.30;59.80;;;;;;5111734;28;20059;-84
2022/09/12 11:15:15;;;;;;;3.35;0.60;;;23.20;60.10;;;;;;5111758;28;20066;-84
2022/09/12 11:18:03;;;;;;;1.42;0.43;;;23.00;59.40;;;;;;5098643;28;20493;-84
2022/09/12 11:21:25;;;;;;;4.60;1.38;;;23.10;59.70;;;;;;5092628;28;20504;-84
2022/09/12 11:24:07;;;;;;;1.55;0.47;;;23.20;58.40;;;;;;5085274;28;20048;-85
2022/09/12 11:27:12;;;;;;;1.23;0.50;;;23.30;57.40;;;;;;5108203;28;20016;-83
2022/09/12 11:29:44;;;;;;;6.32;0.60;;;23.40;57.40;;;;;;5067437;28;20040;-84
2022/09/12 11:32:47;;;;;;;1.55;0.50;;;23.60;57.70;;;;;;5090803;28;20028;-85
2022/09/12 11:35:29;;;;;;;2.00;0.70;;;23.70;59.90;;;;;;5091243;28;20035;-83
2022/09/12 11:38:07;;;;;;;4.68;0.60;;;23.80;58.50;;;;;;5092136;28;20646;-84
2022/09/12 11:40:55;;;;;;;0.93;0.50;;;23.60;59.00;;;;;;5092063;28;20112;-84
2022/09/12 11:43:50;;;;;;;1.10;0.50;;;23.40;59.20;;;;;;5090749;28;20025;-83
2022/09/12 11:46:51;;;;;;;2.03;0.75;;;23.20;60.00;;;;;;5109939;28;20085;-84
2022/09/12 11:49:24;;;;;;;1.10;0.40;;;23.10;61.60;;;;;;5029928;28;20180;-85
2022/09/12 11:51:59;;;;;;;2.35;0.55;;;23.00;59.20;;;;;;5112997;27;20043;-84
2022/09/12 11:54:39;;;;;;;0.73;0.40;;;22.90;60.30;;;;;;5091899;28;20055;-84
2022/09/12 11:57:58;;;;;;;1.60;0.63;;;23.00;61.30;;;;;;5090055;28;20099;-83
2022/09/12 12:00:36;;;;;;;1.05;0.50;;;23.10;61.20;;;;;;5050403;28;20392;-82
2022/09/12 12:03:22;;;;;;;4.55;0.57;;;23.00;59.40;;;;;;5033489;28;20025;-83
2022/09/12 12:05:54;;;;;;;1.60;0.57;;;22.90;59.70;;;;;;5072689;28;20046;-85
2022/09/12 12:08:22;;;;;;;1.65;0.60;;;22.90;60.30;;;;;;5092359;28;20027;-84
2022/09/12 12:10:50;;;;;;;1.25;0.50;;;22.90;60.80;;;;;;5111106;28;20407;-84
2022/09/12 12:13:38;;;;;;;2.83;0.60;;;22.90;60.90;;;;;;5110836;28;20107;-84
2022/09/12 12:16:16;;;;;;;1.02;0.40;;;23.00;59.70;;;;;;5110644;28;20092;-85
2022/09/12 12:18:43;;;;;;;0.82;0.40;;;23.20;59.90;;;;;;5111977;28;20062;-85
2022/09/12 12:21:28;;;;;;;1.50;0.80;;;23.00;59.80;;;;;;5109855;28;20039;-84
2022/09/12 12:24:06;;;;;;;2.53;0.90;;;22.80;60.40;;;;;;5110339;28;20030;-83
2022/09/12 12:26:37;;;;;;;2.05;0.60;;;22.60;61.80;;;;;;5110514;28;20038;-84
2022/09/12 12:29:16;;;;;;;0.93;0.68;;;22.30;62.60;;;;;;5101074;28;20028;-84
2022/09/12 12:32:03;;;;;;;1.13;0.70;;;22.20;63.40;;;;;;5089690;28;20428;-84
2022/09/12 12:34:37;;;;;;;3.47;1.58;;;22.20;64.00;;;;;;5089470;28;20754;-84
2022/09/12 12:37:18;;;;;;;1.60;1.02;;;22.10;63.70;;;;;;5088155;28;20055;-84
2022/09/12 12:39:59;;;;;;;3.05;1.17;;;22.10;64.60;;;;;;5089645;28;20459;-84
2022/09/12 12:42:34;;;;;;;8.25;2.40;;;22.20;64.70;;;;;;5089339;28;20442;-82
2022/09/12 12:45:06;;;;;;;3.72;1.15;;;22.20;64.70;;;;;;5091004;28;20020;-84
2022/09/12 12:47:37;;;;;;;5.25;2.08;;;22.30;66.20;;;;;;5089522;28;20035;-83
2022/09/12 12:50:08;;;;;;;3.25;0.90;;;22.40;66.00;;;;;;5089258;28;20414;-84
2022/09/12 12:52:49;;;;;;;1.50;0.80;;;22.50;65.90;;;;;;5089853;28;20085;-84
2022/09/12 12:55:31;;;;;;;6.63;1.00;;;22.70;63.50;;;;;;5089522;28;20434;-85
2022/09/12 12:58:01;;;;;;;0.98;0.50;;;22.70;63.40;;;;;;5107722;28;20084;-82
2022/09/12 13:00:39;;;;;;;2.00;0.52;;;22.70;63.40;;;;;;5109816;28;20065;-84
2022/09/12 13:03:07;;;;;;;3.92;0.90;;;22.80;62.10;;;;;;5110040;28;20049;-84
2022/09/12 13:05:44;;;;;;;1.25;0.50;;;22.70;62.60;;;;;;5096091;28;20031;-84
2022/09/12 13:08:28;;;;;;;2.55;0.80;;;22.70;63.20;;;;;;5089779;28;20063;-84
2022/09/12 13:11:20;;;;;;;1.85;0.70;;;22.60;64.00;;;;;;5088968;28;20081;-84
2022/09/12 13:14:01;;;;;;;2.38;0.80;;;22.50;63.60;;;;;;5076429;28;20081;-84
2022/09/12 13:16:37;;;;;;;1.27;0.60;;;22.60;64.00;;;;;;5088771;28;20403;-85
2022/09/12 13:19:14;;;;;;;1.63;0.52;;;22.60;62.40;;;;;;5089592;28;20058;-85
2022/09/12 13:21:55;;;;;;;1.35;0.65;;;22.50;61.70;;;;;;5103528;28;20399;-85
2022/09/12 13:24:22;;;;;;;0.82;0.40;;;22.40;62.20;;;;;;5110166;28;20573;-84
2022/09/12 13:26:48;;;;;;;1.00;0.50;;;22.40;62.90;;;;;;5109576;28;20089;-84